sensor_id;sensor_type;location;lat;lon;timestamp;temperature;humidity
35240;DHT22;21376;50.954;4.716;2023-04-24T00:01:35;9.70;99.90
35240;DHT22;21376;50.954;4.716;2023-04-24T00:04:03;9.80;99.90
35240;DHT22;21376;50.954;4.716;2023-04-24T00:06:32;9.80;99.90
35240;DHT22;21376;50.954;4.716;2023-04-24T00:09:02;9.90;99.90
35240;DHT22;21376;50.954;4.716;2023-04-24T00:11:31;9.80;99.90
35240;DHT22;21376;50.954;4.716;2023-04-24T00:14:06;9.80;99.90
35240;DHT22;21376;50.954;4.716;2023-04-24T00:16:38;9.70;99.90
35240;DHT22;21376;50.954;4.716;2023-04-24T00:19:13;9.80;99.90
35240;DHT22;21376;50.954;4.716;2023-04-24T00:21:42;9.80;99.90
35240;DHT22;21376;50.954;4.716;2023-04-24T00:24:17;9.90;99.90
35240;DHT22;21376;50.954;4.716;2023-04-24T00:26:44;9.90;99.90
35240;DHT22;21376;50.954;4.716;2023-04-24T00:29:10;9.90;99.90
35240;DHT22;21376;50.954;4.716;2023-04-24T00:31:37;9.90;99.90
35240;DHT22;21376;50.954;4.716;2023-04-24T00:34:04;9.90;99.90
35240;DHT22;21376;50.954;4.716;2023-04-24T00:36:30;9.90;99.90
35240;DHT22;21376;50.954;4.716;2023-04-24T00:38:59;10.00;99.90
35240;DHT22;21376;50.954;4.716;2023-04-24T00:41:28;9.90;99.90
35240;DHT22;21376;50.954;4.716;2023-04-24T00:44:02;9.90;99.90
35240;DHT22;21376;50.954;4.716;2023-04-24T00:46:31;9.90;99.90
35240;DHT22;21376;50.954;4.716;2023-04-24T00:48:59;9.80;99.90
35240;DHT22;21376;50.954;4.716;2023-04-24T00:51:28;9.80;99.90
35240;DHT22;21376;50.954;4.716;2023-04-24T00:54:02;9.70;99.90
35240;DHT22;21376;50.954;4.716;2023-04-24T00:56:31;9.70;99.90
35240;DHT22;21376;50.954;4.716;2023-04-24T00:58:59;9.60;99.90
35240;DHT22;21376;50.954;4.716;2023-04-24T01:01:26;9.50;99.90
35240;DHT22;21376;50.954;4.716;2023-04-24T01:03:53;9.50;99.90
35240;DHT22;21376;50.954;4.716;2023-04-24T01:06:19;9.50;99.90
35240;DHT22;21376;50.954;4.716;2023-04-24T01:08:47;9.50;99.90
35240;DHT22;21376;50.954;4.716;2023-04-24T01:11:21;9.50;99.90
35240;DHT22;21376;50.954;4.716;2023-04-24T01:13:47;9.50;99.90
35240;DHT22;21376;50.954;4.716;2023-04-24T01:16:14;9.50;99.90
35240;DHT22;21376;50.954;4.716;2023-04-24T01:18:43;9.40;99.90
35240;DHT22;21376;50.954;4.716;2023-04-24T01:21:13;9.40;99.90
35240;DHT22;21376;50.954;4.716;2023-04-24T01:23:39;9.40;99.90
35240;DHT22;21376;50.954;4.716;2023-04-24T01:29:11;9.50;99.90
35240;DHT22;21376;50.954;4.716;2023-04-24T01:31:40;9.50;99.90
35240;DHT22;21376;50.954;4.716;2023-04-24T01:34:09;9.60;99.90
35240;DHT22;21376;50.954;4.716;2023-04-24T01:36:37;9.50;99.90
35240;DHT22;21376;50.954;4.716;2023-04-24T01:39:21;9.40;99.90
35240;DHT22;21376;50.954;4.716;2023-04-24T01:41:55;9.60;99.90
35240;DHT22;21376;50.954;4.716;2023-04-24T01:44:21;9.50;99.90
35240;DHT22;21376;50.954;4.716;2023-04-24T01:47:00;9.60;99.90
35240;DHT22;21376;50.954;4.716;2023-04-24T01:49:33;9.50;99.90
35240;DHT22;21376;50.954;4.716;2023-04-24T01:52:02;9.40;99.90
35240;DHT22;21376;50.954;4.716;2023-04-24T01:54:33;9.50;99.90
35240;DHT22;21376;50.954;4.716;2023-04-24T01:57:02;9.60;99.90
35240;DHT22;21376;50.954;4.716;2023-04-24T01:59:31;9.60;99.90
35240;DHT22;21376;50.954;4.716;2023-04-24T02:02:02;9.50;99.90
35240;DHT22;21376;50.954;4.716;2023-04-24T02:04:31;9.60;99.90
35240;DHT22;21376;50.954;4.716;2023-04-24T02:06:58;9.40;99.90
35240;DHT22;21376;50.954;4.716;2023-04-24T02:09:24;9.40;99.90
35240;DHT22;21376;50.954;4.716;2023-04-24T02:11:53;9.40;99.90
35240;DHT22;21376;50.954;4.716;2023-04-24T02:14:23;9.30;99.90
35240;DHT22;21376;50.954;4.716;2023-04-24T02:16:52;9.30;99.90
35240;DHT22;21376;50.954;4.716;2023-04-24T02:19:20;9.20;99.90
35240;DHT22;21376;50.954;4.716;2023-04-24T02:21:47;9.10;99.90
35240;DHT22;21376;50.954;4.716;2023-04-24T02:24:16;9.10;99.90
35240;DHT22;21376;50.954;4.716;2023-04-24T02:26:45;9.00;99.90
35240;DHT22;21376;50.954;4.716;2023-04-24T02:29:20;9.00;99.90
35240;DHT22;21376;50.954;4.716;2023-04-24T02:31:49;9.10;99.90
35240;DHT22;21376;50.954;4.716;2023-04-24T02:34:14;9.10;99.90
35240;DHT22;21376;50.954;4.716;2023-04-24T02:36:41;9.10;99.90
35240;DHT22;21376;50.954;4.716;2023-04-24T02:39:10;9.00;99.90
35240;DHT22;21376;50.954;4.716;2023-04-24T02:41:46;8.90;99.90
35240;DHT22;21376;50.954;4.716;2023-04-24T02:44:16;8.90;99.90
35240;DHT22;21376;50.954;4.716;2023-04-24T02:46:44;8.90;99.90
35240;DHT22;21376;50.954;4.716;2023-04-24T02:49:10;8.90;99.90
35240;DHT22;21376;50.954;4.716;2023-04-24T02:51:37;8.80;99.90
35240;DHT22;21376;50.954;4.716;2023-04-24T02:54:07;8.80;99.90
35240;DHT22;21376;50.954;4.716;2023-04-24T02:56:37;8.90;99.90
35240;DHT22;21376;50.954;4.716;2023-04-24T02:59:05;9.00;99.90
35240;DHT22;21376;50.954;4.716;2023-04-24T03:01:33;9.10;99.90
35240;DHT22;21376;50.954;4.716;2023-04-24T03:04:00;9.00;99.90
35240;DHT22;21376;50.954;4.716;2023-04-24T03:06:27;9.00;99.90
35240;DHT22;21376;50.954;4.716;2023-04-24T03:08:56;8.90;99.90
35240;DHT22;21376;50.954;4.716;2023-04-24T03:11:22;9.00;99.90
35240;DHT22;21376;50.954;4.716;2023-04-24T03:13:50;8.80;99.90
35240;DHT22;21376;50.954;4.716;2023-04-24T03:16:18;8.80;99.90
35240;DHT22;21376;50.954;4.716;2023-04-24T03:18:46;8.80;99.90
35240;DHT22;21376;50.954;4.716;2023-04-24T03:21:13;8.80;99.90
35240;DHT22;21376;50.954;4.716;2023-04-24T03:23:42;8.70;99.90
35240;DHT22;21376;50.954;4.716;2023-04-24T03:26:12;8.70;99.90
35240;DHT22;21376;50.954;4.716;2023-04-24T03:29:10;8.80;99.90
35240;DHT22;21376;50.954;4.716;2023-04-24T03:31:36;8.80;99.90
35240;DHT22;21376;50.954;4.716;2023-04-24T03:34:06;8.80;99.90
35240;DHT22;21376;50.954;4.716;2023-04-24T03:36:35;8.80;99.90
35240;DHT22;21376;50.954;4.716;2023-04-24T03:39:03;8.70;99.90
35240;DHT22;21376;50.954;4.716;2023-04-24T03:41:30;8.70;99.90
35240;DHT22;21376;50.954;4.716;2023-04-24T03:43:56;8.60;99.90
35240;DHT22;21376;50.954;4.716;2023-04-24T03:46:22;8.60;99.90
35240;DHT22;21376;50.954;4.716;2023-04-24T03:48:50;8.70;99.90
35240;DHT22;21376;50.954;4.716;2023-04-24T03:51:19;8.60;99.90
35240;DHT22;21376;50.954;4.716;2023-04-24T03:53:48;8.70;99.90
35240;DHT22;21376;50.954;4.716;2023-04-24T03:56:16;8.70;99.90
35240;DHT22;21376;50.954;4.716;2023-04-24T03:58:45;8.80;99.90
35240;DHT22;21376;50.954;4.716;2023-04-24T04:01:13;8.70;99.90
35240;DHT22;21376;50.954;4.716;2023-04-24T04:03:45;8.70;99.90
35240;DHT22;21376;50.954;4.716;2023-04-24T04:06:14;8.70;99.90
35240;DHT22;21376;50.954;4.716;2023-04-24T04:08:40;8.70;99.90
35240;DHT22;21376;50.954;4.716;2023-04-24T04:11:06;8.70;99.90
35240;DHT22;21376;50.954;4.716;2023-04-24T04:13:31;8.70;99.90
35240;DHT22;21376;50.954;4.716;2023-04-24T04:15:58;8.70;99.90
35240;DHT22;21376;50.954;4.716;2023-04-24T04:18:27;8.80;99.90
35240;DHT22;21376;50.954;4.716;2023-04-24T04:20:55;8.80;99.90
35240;DHT22;21376;50.954;4.716;2023-04-24T04:23:29;8.70;99.90
35240;DHT22;21376;50.954;4.716;2023-04-24T04:25:57;8.80;99.90
35240;DHT22;21376;50.954;4.716;2023-04-24T04:28:32;8.80;99.90
35240;DHT22;21376;50.954;4.716;2023-04-24T04:31:30;8.80;99.90
35240;DHT22;21376;50.954;4.716;2023-04-24T04:33:56;8.70;99.90
35240;DHT22;21376;50.954;4.716;2023-04-24T04:36:29;8.90;99.90
35240;DHT22;21376;50.954;4.716;2023-04-24T04:38:55;8.80;99.90
35240;DHT22;21376;50.954;4.716;2023-04-24T04:41:22;8.80;99.90
35240;DHT22;21376;50.954;4.716;2023-04-24T04:43:48;8.80;99.90
35240;DHT22;21376;50.954;4.716;2023-04-24T04:46:17;8.80;99.90
35240;DHT22;21376;50.954;4.716;2023-04-24T04:48:42;8.80;99.90
35240;DHT22;21376;50.954;4.716;2023-04-24T04:51:11;8.80;99.90
35240;DHT22;21376;50.954;4.716;2023-04-24T04:53:39;8.80;99.90
35240;DHT22;21376;50.954;4.716;2023-04-24T04:56:06;8.80;99.90
35240;DHT22;21376;50.954;4.716;2023-04-24T04:58:35;8.70;99.90
35240;DHT22;21376;50.954;4.716;2023-04-24T05:01:00;8.70;99.90
35240;DHT22;21376;50.954;4.716;2023-04-24T05:03:39;8.80;99.90
35240;DHT22;21376;50.954;4.716;2023-04-24T05:06:06;8.70;99.90
35240;DHT22;21376;50.954;4.716;2023-04-24T05:08:38;8.70;99.90
35240;DHT22;21376;50.954;4.716;2023-04-24T05:11:06;8.60;99.90
35240;DHT22;21376;50.954;4.716;2023-04-24T05:13:35;8.60;99.90
35240;DHT22;21376;50.954;4.716;2023-04-24T05:16:04;8.60;99.90
35240;DHT22;21376;50.954;4.716;2023-04-24T05:18:30;8.60;99.90
35240;DHT22;21376;50.954;4.716;2023-04-24T05:20:57;8.60;99.90
35240;DHT22;21376;50.954;4.716;2023-04-24T05:23:29;8.60;99.90
35240;DHT22;21376;50.954;4.716;2023-04-24T05:25:55;8.60;99.90
35240;DHT22;21376;50.954;4.716;2023-04-24T05:28:22;8.60;99.90
35240;DHT22;21376;50.954;4.716;2023-04-24T05:30:50;8.70;99.90
35240;DHT22;21376;50.954;4.716;2023-04-24T05:33:19;8.60;99.90
35240;DHT22;21376;50.954;4.716;2023-04-24T05:35:55;8.60;99.90
35240;DHT22;21376;50.954;4.716;2023-04-24T05:38:33;8.60;99.90
35240;DHT22;21376;50.954;4.716;2023-04-24T05:41:03;8.50;99.90
35240;DHT22;21376;50.954;4.716;2023-04-24T05:43:35;8.50;99.90
35240;DHT22;21376;50.954;4.716;2023-04-24T05:46:04;8.50;99.90
35240;DHT22;21376;50.954;4.716;2023-04-24T05:48:30;8.40;99.90
35240;DHT22;21376;50.954;4.716;2023-04-24T05:50:56;8.40;99.90
35240;DHT22;21376;50.954;4.716;2023-04-24T05:53:25;8.40;99.90
35240;DHT22;21376;50.954;4.716;2023-04-24T05:55:56;8.40;99.90
35240;DHT22;21376;50.954;4.716;2023-04-24T05:58:25;8.40;99.90
35240;DHT22;21376;50.954;4.716;2023-04-24T06:00:52;8.40;99.90
35240;DHT22;21376;50.954;4.716;2023-04-24T06:03:24;8.40;99.90
35240;DHT22;21376;50.954;4.716;2023-04-24T06:05:54;8.40;99.90
35240;DHT22;21376;50.954;4.716;2023-04-24T06:08:22;8.50;99.90
35240;DHT22;21376;50.954;4.716;2023-04-24T06:10:48;8.50;99.90
35240;DHT22;21376;50.954;4.716;2023-04-24T06:13:13;8.50;99.90
35240;DHT22;21376;50.954;4.716;2023-04-24T06:15:49;8.50;99.90
35240;DHT22;21376;50.954;4.716;2023-04-24T06:18:20;8.60;99.90
35240;DHT22;21376;50.954;4.716;2023-04-24T06:20:46;8.60;99.90
35240;DHT22;21376;50.954;4.716;2023-04-24T06:23:15;8.60;99.90
35240;DHT22;21376;50.954;4.716;2023-04-24T06:25:44;8.50;99.90
35240;DHT22;21376;50.954;4.716;2023-04-24T06:28:12;8.40;99.90
35240;DHT22;21376;50.954;4.716;2023-04-24T06:30:42;8.50;99.90
35240;DHT22;21376;50.954;4.716;2023-04-24T06:33:11;8.50;99.90
35240;DHT22;21376;50.954;4.716;2023-04-24T06:35:39;8.60;99.90
35240;DHT22;21376;50.954;4.716;2023-04-24T06:38:05;8.50;99.90
35240;DHT22;21376;50.954;4.716;2023-04-24T06:40:34;8.60;99.90
35240;DHT22;21376;50.954;4.716;2023-04-24T06:43:03;8.80;99.90
35240;DHT22;21376;50.954;4.716;2023-04-24T06:45:31;8.80;99.90
35240;DHT22;21376;50.954;4.716;2023-04-24T06:48:00;8.80;99.90
35240;DHT22;21376;50.954;4.716;2023-04-24T06:50:29;8.70;99.90
35240;DHT22;21376;50.954;4.716;2023-04-24T06:53:06;8.70;99.90
35240;DHT22;21376;50.954;4.716;2023-04-24T06:55:35;8.80;99.90
35240;DHT22;21376;50.954;4.716;2023-04-24T06:58:04;8.80;99.90
35240;DHT22;21376;50.954;4.716;2023-04-24T07:00:34;8.70;99.90
35240;DHT22;21376;50.954;4.716;2023-04-24T07:03:05;8.90;99.90
35240;DHT22;21376;50.954;4.716;2023-04-24T07:05:31;8.80;99.90
35240;DHT22;21376;50.954;4.716;2023-04-24T07:08:02;8.70;99.90
35240;DHT22;21376;50.954;4.716;2023-04-24T07:10:31;8.80;99.90
35240;DHT22;21376;50.954;4.716;2023-04-24T07:12:59;8.80;99.90
35240;DHT22;21376;50.954;4.716;2023-04-24T07:15:25;8.70;99.90
35240;DHT22;21376;50.954;4.716;2023-04-24T07:17:53;8.90;99.90
35240;DHT22;21376;50.954;4.716;2023-04-24T07:20:21;9.00;99.90
35240;DHT22;21376;50.954;4.716;2023-04-24T07:22:47;9.00;99.90
35240;DHT22;21376;50.954;4.716;2023-04-24T07:25:17;9.00;99.90
35240;DHT22;21376;50.954;4.716;2023-04-24T07:27:44;8.90;99.90
35240;DHT22;21376;50.954;4.716;2023-04-24T07:30:12;8.90;99.90
35240;DHT22;21376;50.954;4.716;2023-04-24T07:32:41;8.90;99.90
35240;DHT22;21376;50.954;4.716;2023-04-24T07:35:07;9.00;99.90
35240;DHT22;21376;50.954;4.716;2023-04-24T07:37:35;9.10;99.90
35240;DHT22;21376;50.954;4.716;2023-04-24T07:40:01;9.40;99.90
35240;DHT22;21376;50.954;4.716;2023-04-24T07:42:28;9.40;99.90
35240;DHT22;21376;50.954;4.716;2023-04-24T07:44:59;9.40;99.90
35240;DHT22;21376;50.954;4.716;2023-04-24T07:47:26;9.40;99.90
35240;DHT22;21376;50.954;4.716;2023-04-24T07:49:52;9.30;99.90
35240;DHT22;21376;50.954;4.716;2023-04-24T07:52:19;9.30;99.90
35240;DHT22;21376;50.954;4.716;2023-04-24T07:54:45;9.20;99.90
35240;DHT22;21376;50.954;4.716;2023-04-24T07:57:11;9.20;99.90
35240;DHT22;21376;50.954;4.716;2023-04-24T07:59:40;9.20;99.90
35240;DHT22;21376;50.954;4.716;2023-04-24T08:02:09;9.00;99.90
35240;DHT22;21376;50.954;4.716;2023-04-24T08:04:38;9.00;99.90
35240;DHT22;21376;50.954;4.716;2023-04-24T08:07:05;9.40;99.90
35240;DHT22;21376;50.954;4.716;2023-04-24T08:09:31;9.50;99.90
35240;DHT22;21376;50.954;4.716;2023-04-24T08:11:58;9.30;99.90
35240;DHT22;21376;50.954;4.716;2023-04-24T08:14:24;9.20;99.90
35240;DHT22;21376;50.954;4.716;2023-04-24T08:16:54;9.10;99.90
35240;DHT22;21376;50.954;4.716;2023-04-24T08:19:21;9.10;99.90
35240;DHT22;21376;50.954;4.716;2023-04-24T08:21:50;8.80;99.90
35240;DHT22;21376;50.954;4.716;2023-04-24T08:24:19;8.70;99.90
35240;DHT22;21376;50.954;4.716;2023-04-24T08:26:47;8.70;99.90
35240;DHT22;21376;50.954;4.716;2023-04-24T08:29:16;8.70;99.90
35240;DHT22;21376;50.954;4.716;2023-04-24T08:31:45;8.70;99.90
35240;DHT22;21376;50.954;4.716;2023-04-24T08:34:13;9.00;99.90
35240;DHT22;21376;50.954;4.716;2023-04-24T08:36:42;9.40;99.90
35240;DHT22;21376;50.954;4.716;2023-04-24T08:39:11;9.80;99.90
35240;DHT22;21376;50.954;4.716;2023-04-24T08:41:42;10.30;99.90
35240;DHT22;21376;50.954;4.716;2023-04-24T08:44:12;10.60;99.90
35240;DHT22;21376;50.954;4.716;2023-04-24T08:46:43;12.40;99.90
35240;DHT22;21376;50.954;4.716;2023-04-24T08:49:19;15.40;99.90
35240;DHT22;21376;50.954;4.716;2023-04-24T08:51:49;16.90;99.90
35240;DHT22;21376;50.954;4.716;2023-04-24T08:54:18;16.10;99.90
35240;DHT22;21376;50.954;4.716;2023-04-24T08:56:48;15.90;99.90
35240;DHT22;21376;50.954;4.716;2023-04-24T08:59:16;15.20;99.90
35240;DHT22;21376;50.954;4.716;2023-04-24T09:01:43;16.10;99.90
35240;DHT22;21376;50.954;4.716;2023-04-24T09:04:12;16.80;99.90
35240;DHT22;21376;50.954;4.716;2023-04-24T09:06:39;15.70;99.90
35240;DHT22;21376;50.954;4.716;2023-04-24T09:09:11;14.60;99.90
35240;DHT22;21376;50.954;4.716;2023-04-24T09:11:40;13.80;99.90
35240;DHT22;21376;50.954;4.716;2023-04-24T09:14:09;13.00;99.90
35240;DHT22;21376;50.954;4.716;2023-04-24T09:16:38;12.30;99.90
35240;DHT22;21376;50.954;4.716;2023-04-24T09:19:04;11.90;99.90
35240;DHT22;21376;50.954;4.716;2023-04-24T09:21:35;11.80;99.90
35240;DHT22;21376;50.954;4.716;2023-04-24T09:24:07;11.60;99.90
35240;DHT22;21376;50.954;4.716;2023-04-24T09:26:36;11.70;99.90
35240;DHT22;21376;50.954;4.716;2023-04-24T09:29:05;11.90;99.90
35240;DHT22;21376;50.954;4.716;2023-04-24T09:31:31;13.90;99.90
35240;DHT22;21376;50.954;4.716;2023-04-24T09:34:00;16.40;99.90
35240;DHT22;21376;50.954;4.716;2023-04-24T09:36:36;19.20;99.90
35240;DHT22;21376;50.954;4.716;2023-04-24T09:39:11;20.10;99.90
35240;DHT22;21376;50.954;4.716;2023-04-24T09:44:19;18.60;99.90
35240;DHT22;21376;50.954;4.716;2023-04-24T09:46:52;17.60;99.90
35240;DHT22;21376;50.954;4.716;2023-04-24T09:49:29;16.10;99.90
35240;DHT22;21376;50.954;4.716;2023-04-24T09:52:15;15.00;99.90
35240;DHT22;21376;50.954;4.716;2023-04-24T09:54:45;14.20;99.90
35240;DHT22;21376;50.954;4.716;2023-04-24T09:57:20;13.50;99.90
35240;DHT22;21376;50.954;4.716;2023-04-24T09:59:46;12.60;99.90
35240;DHT22;21376;50.954;4.716;2023-04-24T10:02:20;12.40;99.90
35240;DHT22;21376;50.954;4.716;2023-04-24T10:07:42;12.90;99.90
35240;DHT22;21376;50.954;4.716;2023-04-24T10:10:09;12.80;99.90
35240;DHT22;21376;50.954;4.716;2023-04-24T10:12:37;14.80;99.90
35240;DHT22;21376;50.954;4.716;2023-04-24T10:33:42;14.10;99.90
35240;DHT22;21376;50.954;4.716;2023-04-24T10:36:10;14.20;99.90
35240;DHT22;21376;50.954;4.716;2023-04-24T10:38:39;13.90;99.90
35240;DHT22;21376;50.954;4.716;2023-04-24T10:41:11;13.40;99.90
35240;DHT22;21376;50.954;4.716;2023-04-24T10:44:10;12.90;99.90
35240;DHT22;21376;50.954;4.716;2023-04-24T10:46:44;12.70;99.90
35240;DHT22;21376;50.954;4.716;2023-04-24T10:49:13;12.40;99.90
35240;DHT22;21376;50.954;4.716;2023-04-24T10:51:48;12.80;99.90
35240;DHT22;21376;50.954;4.716;2023-04-24T10:55:06;14.00;99.90
35240;DHT22;21376;50.954;4.716;2023-04-24T10:57:34;16.50;99.90
35240;DHT22;21376;50.954;4.716;2023-04-24T11:00:26;15.70;99.90
35240;DHT22;21376;50.954;4.716;2023-04-24T11:02:58;15.90;99.90
35240;DHT22;21376;50.954;4.716;2023-04-24T11:08:25;15.20;99.90
35240;DHT22;21376;50.954;4.716;2023-04-24T11:14:15;13.60;99.90
35240;DHT22;21376;50.954;4.716;2023-04-24T11:16:56;13.30;99.90
35240;DHT22;21376;50.954;4.716;2023-04-24T11:19:27;13.30;99.90
35240;DHT22;21376;50.954;4.716;2023-04-24T11:21:59;13.40;99.90
35240;DHT22;21376;50.954;4.716;2023-04-24T11:24:55;13.60;99.90
35240;DHT22;21376;50.954;4.716;2023-04-24T11:27:39;13.50;99.90
35240;DHT22;21376;50.954;4.716;2023-04-24T11:33:10;14.10;99.90
35240;DHT22;21376;50.954;4.716;2023-04-24T11:35:40;14.10;99.90
35240;DHT22;21376;50.954;4.716;2023-04-24T11:38:06;15.00;99.90
35240;DHT22;21376;50.954;4.716;2023-04-24T11:40:34;16.80;99.90
35240;DHT22;21376;50.954;4.716;2023-04-24T11:43:00;17.20;99.90
35240;DHT22;21376;50.954;4.716;2023-04-24T11:45:29;16.60;99.90
35240;DHT22;21376;50.954;4.716;2023-04-24T11:48:07;15.60;99.90
35240;DHT22;21376;50.954;4.716;2023-04-24T11:53:43;13.80;99.90
35240;DHT22;21376;50.954;4.716;2023-04-24T11:56:25;15.20;99.90
35240;DHT22;21376;50.954;4.716;2023-04-24T11:58:56;17.60;99.90
35240;DHT22;21376;50.954;4.716;2023-04-24T12:01:25;18.30;99.90
35240;DHT22;21376;50.954;4.716;2023-04-24T12:03:59;17.60;99.90
35240;DHT22;21376;50.954;4.716;2023-04-24T12:06:25;17.50;99.90
35240;DHT22;21376;50.954;4.716;2023-04-24T12:08:55;16.80;99.90
35240;DHT22;21376;50.954;4.716;2023-04-24T12:11:23;15.40;99.90
35240;DHT22;21376;50.954;4.716;2023-04-24T12:13:49;14.60;99.90
35240;DHT22;21376;50.954;4.716;2023-04-24T12:16:15;14.60;99.90
35240;DHT22;21376;50.954;4.716;2023-04-24T12:18:44;14.40;99.90
35240;DHT22;21376;50.954;4.716;2023-04-24T12:21:23;14.10;99.90
35240;DHT22;21376;50.954;4.716;2023-04-24T12:23:55;14.00;99.90
35240;DHT22;21376;50.954;4.716;2023-04-24T12:26:23;14.60;99.90
35240;DHT22;21376;50.954;4.716;2023-04-24T12:28:53;15.00;99.90
35240;DHT22;21376;50.954;4.716;2023-04-24T12:31:20;14.60;99.90
35240;DHT22;21376;50.954;4.716;2023-04-24T12:33:48;14.40;99.90
35240;DHT22;21376;50.954;4.716;2023-04-24T12:36:15;14.30;99.90
35240;DHT22;21376;50.954;4.716;2023-04-24T12:38:44;14.10;99.90
35240;DHT22;21376;50.954;4.716;2023-04-24T12:41:18;14.00;99.90
35240;DHT22;21376;50.954;4.716;2023-04-24T12:44:01;14.50;99.90
35240;DHT22;21376;50.954;4.716;2023-04-24T12:46:27;14.90;99.90
35240;DHT22;21376;50.954;4.716;2023-04-24T12:48:55;14.70;99.90
35240;DHT22;21376;50.954;4.716;2023-04-24T12:51:25;14.50;99.90
35240;DHT22;21376;50.954;4.716;2023-04-24T12:53:51;14.60;99.90
35240;DHT22;21376;50.954;4.716;2023-04-24T12:56:16;15.30;99.90
35240;DHT22;21376;50.954;4.716;2023-04-24T12:58:42;16.10;99.90
35240;DHT22;21376;50.954;4.716;2023-04-24T13:01:11;17.50;99.90
35240;DHT22;21376;50.954;4.716;2023-04-24T13:03:37;18.80;99.90
35240;DHT22;21376;50.954;4.716;2023-04-24T13:06:03;18.90;99.90
35240;DHT22;21376;50.954;4.716;2023-04-24T13:08:28;18.20;99.90
35240;DHT22;21376;50.954;4.716;2023-04-24T13:10:57;18.10;99.90
35240;DHT22;21376;50.954;4.716;2023-04-24T13:13:24;17.20;99.90
35240;DHT22;21376;50.954;4.716;2023-04-24T13:16:14;16.90;99.90
35240;DHT22;21376;50.954;4.716;2023-04-24T13:18:43;17.30;99.90
35240;DHT22;21376;50.954;4.716;2023-04-24T13:21:14;17.00;99.90
35240;DHT22;21376;50.954;4.716;2023-04-24T13:23:43;16.60;99.90
35240;DHT22;21376;50.954;4.716;2023-04-24T13:26:12;15.90;99.90
35240;DHT22;21376;50.954;4.716;2023-04-24T13:28:38;16.10;99.90
35240;DHT22;21376;50.954;4.716;2023-04-24T13:31:05;16.90;99.90
35240;DHT22;21376;50.954;4.716;2023-04-24T13:33:31;17.10;99.90
35240;DHT22;21376;50.954;4.716;2023-04-24T13:36:00;17.20;99.90
35240;DHT22;21376;50.954;4.716;2023-04-24T13:38:32;16.70;99.90
35240;DHT22;21376;50.954;4.716;2023-04-24T13:41:01;16.30;99.90
35240;DHT22;21376;50.954;4.716;2023-04-24T13:43:34;15.80;99.90
35240;DHT22;21376;50.954;4.716;2023-04-24T13:46:01;15.40;99.90
35240;DHT22;21376;50.954;4.716;2023-04-24T13:48:31;15.60;99.90
35240;DHT22;21376;50.954;4.716;2023-04-24T13:51:00;16.10;99.90
35240;DHT22;21376;50.954;4.716;2023-04-24T13:53:26;15.90;99.90
35240;DHT22;21376;50.954;4.716;2023-04-24T13:55:55;15.50;99.90
35240;DHT22;21376;50.954;4.716;2023-04-24T13:58:21;15.50;99.90
35240;DHT22;21376;50.954;4.716;2023-04-24T14:00:50;15.20;99.90
35240;DHT22;21376;50.954;4.716;2023-04-24T14:03:16;15.20;99.90
35240;DHT22;21376;50.954;4.716;2023-04-24T14:05:48;15.50;99.90
35240;DHT22;21376;50.954;4.716;2023-04-24T14:08:19;15.40;99.90
35240;DHT22;21376;50.954;4.716;2023-04-24T14:10:45;15.20;99.90
35240;DHT22;21376;50.954;4.716;2023-04-24T14:13:14;15.20;99.90
35240;DHT22;21376;50.954;4.716;2023-04-24T14:15:43;15.20;99.90
35240;DHT22;21376;50.954;4.716;2023-04-24T14:18:27;15.10;99.90
35240;DHT22;21376;50.954;4.716;2023-04-24T14:20:53;15.20;99.90
35240;DHT22;21376;50.954;4.716;2023-04-24T14:23:18;15.20;99.90
35240;DHT22;21376;50.954;4.716;2023-04-24T14:25:52;14.70;99.90
35240;DHT22;21376;50.954;4.716;2023-04-24T14:28:21;14.60;99.90
35240;DHT22;21376;50.954;4.716;2023-04-24T14:31:01;15.10;99.90
35240;DHT22;21376;50.954;4.716;2023-04-24T14:33:26;15.30;99.90
35240;DHT22;21376;50.954;4.716;2023-04-24T14:35:58;15.30;99.90
35240;DHT22;21376;50.954;4.716;2023-04-24T14:38:25;14.70;99.90
35240;DHT22;21376;50.954;4.716;2023-04-24T14:40:51;14.30;99.90
35240;DHT22;21376;50.954;4.716;2023-04-24T14:43:17;14.20;99.90
35240;DHT22;21376;50.954;4.716;2023-04-24T14:45:43;14.40;99.90
35240;DHT22;21376;50.954;4.716;2023-04-24T14:48:12;14.40;99.90
35240;DHT22;21376;50.954;4.716;2023-04-24T14:50:41;14.20;99.90
35240;DHT22;21376;50.954;4.716;2023-04-24T14:53:17;14.10;99.90
35240;DHT22;21376;50.954;4.716;2023-04-24T14:55:50;14.30;99.90
35240;DHT22;21376;50.954;4.716;2023-04-24T14:58:17;14.30;99.90
35240;DHT22;21376;50.954;4.716;2023-04-24T15:00:46;14.40;99.90
35240;DHT22;21376;50.954;4.716;2023-04-24T15:03:27;14.20;99.90
35240;DHT22;21376;50.954;4.716;2023-04-24T15:06:07;14.10;99.90
35240;DHT22;21376;50.954;4.716;2023-04-24T15:08:36;14.00;99.90
35240;DHT22;21376;50.954;4.716;2023-04-24T15:11:05;13.90;99.90
35240;DHT22;21376;50.954;4.716;2023-04-24T15:13:31;13.80;99.90
35240;DHT22;21376;50.954;4.716;2023-04-24T15:16:11;13.70;99.90
35240;DHT22;21376;50.954;4.716;2023-04-24T15:18:41;13.70;99.90
35240;DHT22;21376;50.954;4.716;2023-04-24T15:21:08;13.70;99.90
35240;DHT22;21376;50.954;4.716;2023-04-24T15:23:37;13.80;99.90
35240;DHT22;21376;50.954;4.716;2023-04-24T15:26:06;13.90;99.90
35240;DHT22;21376;50.954;4.716;2023-04-24T15:28:31;14.00;99.90
35240;DHT22;21376;50.954;4.716;2023-04-24T15:31:00;14.20;99.90
35240;DHT22;21376;50.954;4.716;2023-04-24T15:33:46;14.20;99.90
35240;DHT22;21376;50.954;4.716;2023-04-24T15:36:16;14.30;99.90
35240;DHT22;21376;50.954;4.716;2023-04-24T15:38:48;14.50;99.90
35240;DHT22;21376;50.954;4.716;2023-04-24T15:41:14;14.40;99.90
35240;DHT22;21376;50.954;4.716;2023-04-24T15:43:42;14.20;99.90
35240;DHT22;21376;50.954;4.716;2023-04-24T15:46:11;14.10;99.90
35240;DHT22;21376;50.954;4.716;2023-04-24T15:48:42;13.80;99.90
35240;DHT22;21376;50.954;4.716;2023-04-24T15:51:13;13.70;99.90
35240;DHT22;21376;50.954;4.716;2023-04-24T15:53:42;13.70;99.90
35240;DHT22;21376;50.954;4.716;2023-04-24T15:56:14;13.80;99.90
35240;DHT22;21376;50.954;4.716;2023-04-24T15:58:41;14.00;99.90
35240;DHT22;21376;50.954;4.716;2023-04-24T16:01:10;14.10;99.90
35240;DHT22;21376;50.954;4.716;2023-04-24T16:03:37;13.80;99.90
35240;DHT22;21376;50.954;4.716;2023-04-24T16:06:06;13.60;99.90
35240;DHT22;21376;50.954;4.716;2023-04-24T16:08:35;13.50;99.90
35240;DHT22;21376;50.954;4.716;2023-04-24T16:11:01;13.50;99.90
35240;DHT22;21376;50.954;4.716;2023-04-24T16:13:28;13.70;99.90
35240;DHT22;21376;50.954;4.716;2023-04-24T16:16:03;13.60;99.90
35240;DHT22;21376;50.954;4.716;2023-04-24T16:18:34;13.50;99.90
35240;DHT22;21376;50.954;4.716;2023-04-24T16:21:03;13.50;99.90
35240;DHT22;21376;50.954;4.716;2023-04-24T16:23:54;13.50;99.90
35240;DHT22;21376;50.954;4.716;2023-04-24T16:26:20;13.60;99.90
35240;DHT22;21376;50.954;4.716;2023-04-24T16:28:46;13.70;99.90
35240;DHT22;21376;50.954;4.716;2023-04-24T16:31:18;13.80;99.90
35240;DHT22;21376;50.954;4.716;2023-04-24T16:33:47;13.60;99.90
35240;DHT22;21376;50.954;4.716;2023-04-24T16:36:15;13.80;99.90